Tropical Cyclones
[Index]
Main Index Home Page Stock Weather Photos Extreme Storms Discussion Storm News and Storm Chasing Reports Tropical Cyclones / Hurricanes / Typhoons Weather Data and Links Wild Fires / Bushfires Weather Observation Techniques Weather Picture Catalogue Tornado Pictures and Reports Stock Video Footage and DVDs for sale
Season 2006-2007 Tropical Cyclone KARA Track Map
Season 2006-2007 Summaries: [BoM-AU] [JTWC-AU] [JTWC-SIO] [JTWC-SPAC] [JTWC-SH]
<<- Previous TC | BoM 2006-2007 Season | Next TC ->>

click for intensity scale information  Lat/long Grid: Show Hide

 Date Labels: Show Hide

Bureau of Meteorology Tropical Cyclone Data

Name: KARA
Number: 907 / 200607_13

23 Mar 2007 06:00 UTC to 30 Mar 2007 00:00 UTC

    date/time    lat    long    hPa   cat  kts
2007-03-23 06   16.2   124.5   1005         15          
2007-03-23 12   16.0   123.9   1004         20          
2007-03-23 18   15.8   123.1   1004         25          
2007-03-24 00   16.0   121.7   1002         25          
2007-03-24 06   16.2   120.7   1002         25          
2007-03-24 12   16.2   119.3   1002         25          
2007-03-24 18   16.3   118.1   1002         25          
2007-03-25 00   16.4   117.5    998         35          
2007-03-25 06   16.5   116.8    996         40          
2007-03-25 12   16.6   116.1    989    1    50          
2007-03-25 18   17.0   115.8    982    2    60          
2007-03-26 00   17.6   115.4    966    3    80          
2007-03-26 06   18.0   115.2    946    4    100          
2007-03-26 12   18.3   115.5    953    4    90          
2007-03-26 18   18.4   116.1    954    4    90          
2007-03-26 21   18.4   116.3    949    4    95          
2007-03-27 00   18.5   116.9    945    4    100          
2007-03-27 03   18.6   117.4    941    4    105          
2007-03-27 06   18.7   118.0    946    4    100          
2007-03-27 09   18.8   118.7    965    3    80          
2007-03-27 12   18.9   119.4    978    2    65          
2007-03-27 18   19.4   120.3    988    1    50          
2007-03-28 00   19.4   121.2    995    1    30          
2007-03-28 06   18.8   121.3    998         25          
2007-03-28 12   18.3   121.4   1000         25          
2007-03-28 18   18.0   121.5   1000         25          
2007-03-29 00   17.9   121.4   1000         25          
2007-03-29 06   17.9   121.3   1000         25          
2007-03-29 12   17.8   120.9   1000         25          
2007-03-29 18   17.6   120.5   1000         25          
2007-03-30 00   17.5   120.1   1000         25          
Winds are 10-min average.

Tropical cyclone tracks developed by Michael Bath using data from the Bureau of Meteorology and Google Maps.


[Australian Severe Weather index] [Copyright Notice] [Email Contacts] [Search This Site] [Privacy Policy]
Document: tropical_cyclone_kara.htm Updated: 29 June 2017